sensor_id;sensor_type;location;lat;lon;timestamp;P1;durP1;ratioP1;P2;durP2;ratioP2
41946;SDS011;27638;42.184;24.848;2023-07-24T00:00:24;10.55;;;7.63;;
41946;SDS011;27638;42.184;24.848;2023-07-24T00:02:50;12.00;;;7.32;;
41946;SDS011;27638;42.184;24.848;2023-07-24T00:05:15;9.35;;;7.13;;
41946;SDS011;27638;42.184;24.848;2023-07-24T00:07:40;13.13;;;7.90;;
41946;SDS011;27638;42.184;24.848;2023-07-24T00:10:06;13.52;;;8.20;;
41946;SDS011;27638;42.184;24.848;2023-07-24T00:12:32;12.23;;;7.25;;
41946;SDS011;27638;42.184;24.848;2023-07-24T00:14:57;10.27;;;7.35;;
41946;SDS011;27638;42.184;24.848;2023-07-24T00:17:23;10.55;;;7.63;;
41946;SDS011;27638;42.184;24.848;2023-07-24T00:19:49;11.90;;;7.40;;
41946;SDS011;27638;42.184;24.848;2023-07-24T00:22:14;11.77;;;7.82;;
41946;SDS011;27638;42.184;24.848;2023-07-24T00:24:39;10.07;;;7.68;;
41946;SDS011;27638;42.184;24.848;2023-07-24T00:27:05;10.68;;;7.22;;
41946;SDS011;27638;42.184;24.848;2023-07-24T00:29:30;10.32;;;7.60;;
41946;SDS011;27638;42.184;24.848;2023-07-24T00:31:56;9.15;;;7.20;;
41946;SDS011;27638;42.184;24.848;2023-07-24T00:34:21;10.32;;;7.32;;
41946;SDS011;27638;42.184;24.848;2023-07-24T00:36:46;10.85;;;7.78;;
41946;SDS011;27638;42.184;24.848;2023-07-24T00:39:13;11.95;;;7.60;;
41946;SDS011;27638;42.184;24.848;2023-07-24T00:41:40;9.02;;;7.28;;
41946;SDS011;27638;42.184;24.848;2023-07-24T00:44:05;10.32;;;6.93;;
41946;SDS011;27638;42.184;24.848;2023-07-24T00:46:31;10.45;;;7.38;;
41946;SDS011;27638;42.184;24.848;2023-07-24T00:48:58;16.77;;;8.25;;
41946;SDS011;27638;42.184;24.848;2023-07-24T00:51:25;10.98;;;8.20;;
41946;SDS011;27638;42.184;24.848;2023-07-24T00:53:54;13.10;;;8.52;;
41946;SDS011;27638;42.184;24.848;2023-07-24T00:56:20;11.40;;;8.18;;
41946;SDS011;27638;42.184;24.848;2023-07-24T00:58:46;11.27;;;7.97;;
41946;SDS011;27638;42.184;24.848;2023-07-24T01:01:12;10.23;;;7.28;;
41946;SDS011;27638;42.184;24.848;2023-07-24T01:03:38;14.27;;;7.38;;
41946;SDS011;27638;42.184;24.848;2023-07-24T01:06:04;11.13;;;7.15;;
41946;SDS011;27638;42.184;24.848;2023-07-24T01:08:29;10.93;;;7.72;;
41946;SDS011;27638;42.184;24.848;2023-07-24T01:10:56;9.25;;;7.53;;
41946;SDS011;27638;42.184;24.848;2023-07-24T01:13:24;11.05;;;6.88;;
41946;SDS011;27638;42.184;24.848;2023-07-24T01:16:05;9.93;;;6.75;;
41946;SDS011;27638;42.184;24.848;2023-07-24T01:18:34;10.70;;;6.97;;
41946;SDS011;27638;42.184;24.848;2023-07-24T01:21:03;10.27;;;6.70;;
41946;SDS011;27638;42.184;24.848;2023-07-24T01:25:59;12.68;;;7.80;;
41946;SDS011;27638;42.184;24.848;2023-07-24T01:28:27;10.98;;;7.35;;
41946;SDS011;27638;42.184;24.848;2023-07-24T01:30:53;9.13;;;6.55;;
41946;SDS011;27638;42.184;24.848;2023-07-24T01:33:19;9.52;;;6.63;;
41946;SDS011;27638;42.184;24.848;2023-07-24T01:35:48;11.35;;;7.40;;
41946;SDS011;27638;42.184;24.848;2023-07-24T01:38:15;9.20;;;6.75;;
41946;SDS011;27638;42.184;24.848;2023-07-24T01:40:41;11.18;;;7.28;;
41946;SDS011;27638;42.184;24.848;2023-07-24T01:43:07;9.35;;;7.22;;
41946;SDS011;27638;42.184;24.848;2023-07-24T01:45:33;12.35;;;7.43;;
41946;SDS011;27638;42.184;24.848;2023-07-24T01:48:00;11.30;;;7.30;;
41946;SDS011;27638;42.184;24.848;2023-07-24T01:50:26;10.05;;;7.50;;
41946;SDS011;27638;42.184;24.848;2023-07-24T01:52:52;10.85;;;7.78;;
41946;SDS011;27638;42.184;24.848;2023-07-24T01:55:17;9.90;;;7.20;;
41946;SDS011;27638;42.184;24.848;2023-07-24T01:57:43;12.77;;;8.25;;
41946;SDS011;27638;42.184;24.848;2023-07-24T02:00:08;10.68;;;6.97;;
41946;SDS011;27638;42.184;24.848;2023-07-24T02:02:34;11.45;;;8.10;;
41946;SDS011;27638;42.184;24.848;2023-07-24T02:05:00;9.90;;;7.35;;
41946;SDS011;27638;42.184;24.848;2023-07-24T02:07:25;12.65;;;7.82;;
41946;SDS011;27638;42.184;24.848;2023-07-24T02:09:50;10.27;;;7.55;;
41946;SDS011;27638;42.184;24.848;2023-07-24T02:12:16;9.25;;;7.57;;
41946;SDS011;27638;42.184;24.848;2023-07-24T02:14:41;11.43;;;7.50;;
41946;SDS011;27638;42.184;24.848;2023-07-24T02:17:07;11.30;;;7.32;;
41946;SDS011;27638;42.184;24.848;2023-07-24T02:19:32;10.55;;;7.68;;
41946;SDS011;27638;42.184;24.848;2023-07-24T02:21:57;11.38;;;7.80;;
41946;SDS011;27638;42.184;24.848;2023-07-24T02:24:23;10.30;;;7.47;;
41946;SDS011;27638;42.184;24.848;2023-07-24T02:26:48;9.68;;;7.88;;
41946;SDS011;27638;42.184;24.848;2023-07-24T02:29:14;10.75;;;7.72;;
41946;SDS011;27638;42.184;24.848;2023-07-24T02:31:39;9.38;;;7.28;;
41946;SDS011;27638;42.184;24.848;2023-07-24T02:34:04;11.75;;;7.35;;
41946;SDS011;27638;42.184;24.848;2023-07-24T02:36:30;17.10;;;7.80;;
41946;SDS011;27638;42.184;24.848;2023-07-24T02:38:55;11.05;;;7.43;;
41946;SDS011;27638;42.184;24.848;2023-07-24T02:41:21;12.63;;;7.18;;
41946;SDS011;27638;42.184;24.848;2023-07-24T02:43:46;10.25;;;8.00;;
41946;SDS011;27638;42.184;24.848;2023-07-24T02:46:12;11.52;;;7.80;;
41946;SDS011;27638;42.184;24.848;2023-07-24T02:48:37;9.80;;;7.72;;
41946;SDS011;27638;42.184;24.848;2023-07-24T02:51:02;10.73;;;7.78;;
41946;SDS011;27638;42.184;24.848;2023-07-24T02:53:28;12.57;;;7.55;;
41946;SDS011;27638;42.184;24.848;2023-07-24T02:55:54;11.18;;;7.82;;
41946;SDS011;27638;42.184;24.848;2023-07-24T02:58:19;24.88;;;8.38;;
41946;SDS011;27638;42.184;24.848;2023-07-24T03:00:44;14.95;;;8.30;;
41946;SDS011;27638;42.184;24.848;2023-07-24T03:03:10;10.85;;;8.13;;
41946;SDS011;27638;42.184;24.848;2023-07-24T03:05:35;11.25;;;7.30;;
41946;SDS011;27638;42.184;24.848;2023-07-24T03:08:01;10.60;;;7.18;;
41946;SDS011;27638;42.184;24.848;2023-07-24T03:10:27;10.63;;;8.10;;
41946;SDS011;27638;42.184;24.848;2023-07-24T03:12:52;11.88;;;8.48;;
41946;SDS011;27638;42.184;24.848;2023-07-24T03:15:18;13.35;;;7.45;;
41946;SDS011;27638;42.184;24.848;2023-07-24T03:17:44;15.43;;;8.05;;
41946;SDS011;27638;42.184;24.848;2023-07-24T03:20:17;20.77;;;8.85;;
41946;SDS011;27638;42.184;24.848;2023-07-24T03:22:43;21.50;;;8.90;;
41946;SDS011;27638;42.184;24.848;2023-07-24T03:25:09;29.80;;;9.82;;
41946;SDS011;27638;42.184;24.848;2023-07-24T03:27:35;15.52;;;8.13;;
41946;SDS011;27638;42.184;24.848;2023-07-24T03:30:00;14.82;;;8.15;;
41946;SDS011;27638;42.184;24.848;2023-07-24T03:32:26;10.77;;;7.82;;
41946;SDS011;27638;42.184;24.848;2023-07-24T03:34:51;15.48;;;7.75;;
41946;SDS011;27638;42.184;24.848;2023-07-24T03:37:16;13.18;;;8.68;;
41946;SDS011;27638;42.184;24.848;2023-07-24T03:39:42;15.18;;;8.15;;
41946;SDS011;27638;42.184;24.848;2023-07-24T03:42:11;11.77;;;7.93;;
41946;SDS011;27638;42.184;24.848;2023-07-24T03:44:39;13.52;;;8.63;;
41946;SDS011;27638;42.184;24.848;2023-07-24T03:47:05;11.20;;;7.88;;
41946;SDS011;27638;42.184;24.848;2023-07-24T03:49:31;12.82;;;9.00;;
41946;SDS011;27638;42.184;24.848;2023-07-24T03:51:56;13.10;;;9.10;;
41946;SDS011;27638;42.184;24.848;2023-07-24T03:54:21;11.30;;;8.27;;
41946;SDS011;27638;42.184;24.848;2023-07-24T03:56:47;15.20;;;9.15;;
41946;SDS011;27638;42.184;24.848;2023-07-24T03:59:12;12.00;;;8.80;;
41946;SDS011;27638;42.184;24.848;2023-07-24T04:01:38;13.77;;;9.43;;
41946;SDS011;27638;42.184;24.848;2023-07-24T04:04:03;19.13;;;9.30;;
41946;SDS011;27638;42.184;24.848;2023-07-24T04:06:28;11.05;;;8.45;;
41946;SDS011;27638;42.184;24.848;2023-07-24T04:08:54;10.40;;;8.20;;
41946;SDS011;27638;42.184;24.848;2023-07-24T04:11:19;11.68;;;8.15;;
41946;SDS011;27638;42.184;24.848;2023-07-24T04:13:45;11.60;;;8.05;;
41946;SDS011;27638;42.184;24.848;2023-07-24T04:16:10;11.85;;;8.18;;
41946;SDS011;27638;42.184;24.848;2023-07-24T04:18:35;11.13;;;7.63;;
41946;SDS011;27638;42.184;24.848;2023-07-24T04:21:01;9.38;;;7.72;;
41946;SDS011;27638;42.184;24.848;2023-07-24T04:23:26;12.68;;;7.93;;
41946;SDS011;27638;42.184;24.848;2023-07-24T04:25:52;11.50;;;7.88;;
41946;SDS011;27638;42.184;24.848;2023-07-24T04:28:17;11.32;;;8.05;;
41946;SDS011;27638;42.184;24.848;2023-07-24T04:30:43;12.07;;;7.70;;
41946;SDS011;27638;42.184;24.848;2023-07-24T04:33:08;13.65;;;8.52;;
41946;SDS011;27638;42.184;24.848;2023-07-24T04:35:33;14.73;;;8.75;;
41946;SDS011;27638;42.184;24.848;2023-07-24T04:37:59;11.57;;;8.77;;
41946;SDS011;27638;42.184;24.848;2023-07-24T04:40:24;16.50;;;9.00;;
41946;SDS011;27638;42.184;24.848;2023-07-24T04:42:50;14.32;;;8.65;;
41946;SDS011;27638;42.184;24.848;2023-07-24T04:45:15;13.27;;;9.57;;
41946;SDS011;27638;42.184;24.848;2023-07-24T04:47:40;16.40;;;9.65;;
41946;SDS011;27638;42.184;24.848;2023-07-24T04:50:07;13.32;;;9.55;;
41946;SDS011;27638;42.184;24.848;2023-07-24T04:52:32;14.48;;;9.52;;
41946;SDS011;27638;42.184;24.848;2023-07-24T04:54:58;16.38;;;10.48;;
41946;SDS011;27638;42.184;24.848;2023-07-24T04:57:23;20.30;;;11.23;;
41946;SDS011;27638;42.184;24.848;2023-07-24T04:59:49;20.02;;;11.98;;
41946;SDS011;27638;42.184;24.848;2023-07-24T05:02:14;17.27;;;11.27;;
41946;SDS011;27638;42.184;24.848;2023-07-24T05:04:40;19.55;;;12.30;;
41946;SDS011;27638;42.184;24.848;2023-07-24T05:07:06;19.52;;;12.07;;
41946;SDS011;27638;42.184;24.848;2023-07-24T05:09:32;19.42;;;13.02;;
41946;SDS011;27638;42.184;24.848;2023-07-24T05:11:57;19.95;;;13.23;;
41946;SDS011;27638;42.184;24.848;2023-07-24T05:14:22;19.80;;;13.50;;
41946;SDS011;27638;42.184;24.848;2023-07-24T05:16:48;20.77;;;12.43;;
41946;SDS011;27638;42.184;24.848;2023-07-24T05:19:13;18.92;;;12.77;;
41946;SDS011;27638;42.184;24.848;2023-07-24T05:21:39;22.45;;;13.68;;
41946;SDS011;27638;42.184;24.848;2023-07-24T05:24:04;19.38;;;12.38;;
41946;SDS011;27638;42.184;24.848;2023-07-24T05:26:29;31.33;;;18.02;;
41946;SDS011;27638;42.184;24.848;2023-07-24T05:28:55;28.60;;;16.55;;
41946;SDS011;27638;42.184;24.848;2023-07-24T05:31:20;27.83;;;17.05;;
41946;SDS011;27638;42.184;24.848;2023-07-24T05:33:46;21.38;;;14.65;;
41946;SDS011;27638;42.184;24.848;2023-07-24T05:36:11;22.90;;;15.77;;
41946;SDS011;27638;42.184;24.848;2023-07-24T05:38:37;24.60;;;16.17;;
41946;SDS011;27638;42.184;24.848;2023-07-24T05:41:02;26.38;;;16.52;;
41946;SDS011;27638;42.184;24.848;2023-07-24T05:43:29;28.63;;;17.48;;
41946;SDS011;27638;42.184;24.848;2023-07-24T05:45:55;29.00;;;18.67;;
41946;SDS011;27638;42.184;24.848;2023-07-24T05:48:21;27.35;;;17.20;;
41946;SDS011;27638;42.184;24.848;2023-07-24T05:50:47;24.13;;;17.35;;
41946;SDS011;27638;42.184;24.848;2023-07-24T05:53:14;27.23;;;17.15;;
41946;SDS011;27638;42.184;24.848;2023-07-24T05:55:40;27.02;;;17.38;;
41946;SDS011;27638;42.184;24.848;2023-07-24T05:58:05;22.25;;;16.63;;
41946;SDS011;27638;42.184;24.848;2023-07-24T06:00:31;26.58;;;17.23;;
41946;SDS011;27638;42.184;24.848;2023-07-24T06:02:56;27.50;;;17.52;;
41946;SDS011;27638;42.184;24.848;2023-07-24T06:05:22;27.67;;;17.85;;
41946;SDS011;27638;42.184;24.848;2023-07-24T06:07:47;26.00;;;17.27;;
41946;SDS011;27638;42.184;24.848;2023-07-24T06:10:13;26.80;;;18.20;;
41946;SDS011;27638;42.184;24.848;2023-07-24T06:12:38;25.20;;;17.55;;
41946;SDS011;27638;42.184;24.848;2023-07-24T06:15:04;22.65;;;16.60;;
41946;SDS011;27638;42.184;24.848;2023-07-24T06:17:30;28.98;;;18.17;;
41946;SDS011;27638;42.184;24.848;2023-07-24T06:19:56;24.17;;;16.25;;
41946;SDS011;27638;42.184;24.848;2023-07-24T06:22:22;24.95;;;17.48;;
41946;SDS011;27638;42.184;24.848;2023-07-24T06:24:47;27.77;;;17.20;;
41946;SDS011;27638;42.184;24.848;2023-07-24T06:27:13;25.60;;;16.80;;
41946;SDS011;27638;42.184;24.848;2023-07-24T06:29:38;23.88;;;16.33;;
41946;SDS011;27638;42.184;24.848;2023-07-24T06:32:04;23.40;;;16.70;;
41946;SDS011;27638;42.184;24.848;2023-07-24T06:34:30;28.50;;;18.10;;
41946;SDS011;27638;42.184;24.848;2023-07-24T06:36:55;25.85;;;17.60;;
41946;SDS011;27638;42.184;24.848;2023-07-24T06:39:21;25.50;;;16.90;;
41946;SDS011;27638;42.184;24.848;2023-07-24T06:41:46;24.30;;;16.70;;
41946;SDS011;27638;42.184;24.848;2023-07-24T06:44:12;25.00;;;16.85;;
41946;SDS011;27638;42.184;24.848;2023-07-24T06:46:37;25.00;;;18.00;;
41946;SDS011;27638;42.184;24.848;2023-07-24T06:49:03;22.35;;;16.33;;
41946;SDS011;27638;42.184;24.848;2023-07-24T06:51:28;25.40;;;17.75;;
41946;SDS011;27638;42.184;24.848;2023-07-24T06:53:54;24.08;;;17.17;;
41946;SDS011;27638;42.184;24.848;2023-07-24T06:56:19;24.08;;;16.52;;
41946;SDS011;27638;42.184;24.848;2023-07-24T06:58:44;21.75;;;17.10;;
41946;SDS011;27638;42.184;24.848;2023-07-24T07:01:10;24.50;;;16.92;;
41946;SDS011;27638;42.184;24.848;2023-07-24T07:03:35;24.50;;;16.15;;
41946;SDS011;27638;42.184;24.848;2023-07-24T07:06:01;28.73;;;17.30;;
41946;SDS011;27638;42.184;24.848;2023-07-24T07:08:27;23.73;;;16.08;;
41946;SDS011;27638;42.184;24.848;2023-07-24T07:10:57;23.88;;;14.70;;
41946;SDS011;27638;42.184;24.848;2023-07-24T07:13:23;23.20;;;15.25;;
41946;SDS011;27638;42.184;24.848;2023-07-24T07:15:49;23.55;;;16.08;;
41946;SDS011;27638;42.184;24.848;2023-07-24T07:18:14;23.55;;;15.70;;
41946;SDS011;27638;42.184;24.848;2023-07-24T07:20:49;23.98;;;17.05;;
41946;SDS011;27638;42.184;24.848;2023-07-24T07:23:17;22.67;;;16.70;;
41946;SDS011;27638;42.184;24.848;2023-07-24T07:25:42;22.45;;;16.42;;
41946;SDS011;27638;42.184;24.848;2023-07-24T07:28:10;23.70;;;16.17;;
41946;SDS011;27638;42.184;24.848;2023-07-24T07:30:39;22.17;;;16.17;;
41946;SDS011;27638;42.184;24.848;2023-07-24T07:33:05;24.13;;;17.08;;
41946;SDS011;27638;42.184;24.848;2023-07-24T07:35:33;28.58;;;17.88;;
41946;SDS011;27638;42.184;24.848;2023-07-24T07:38:00;24.77;;;16.33;;
41946;SDS011;27638;42.184;24.848;2023-07-24T07:40:26;26.40;;;18.30;;
41946;SDS011;27638;42.184;24.848;2023-07-24T07:42:52;25.65;;;16.83;;
41946;SDS011;27638;42.184;24.848;2023-07-24T07:45:21;27.50;;;18.30;;
41946;SDS011;27638;42.184;24.848;2023-07-24T07:47:50;25.17;;;18.25;;
41946;SDS011;27638;42.184;24.848;2023-07-24T07:50:18;24.92;;;17.77;;
41946;SDS011;27638;42.184;24.848;2023-07-24T07:52:43;29.58;;;18.33;;
41946;SDS011;27638;42.184;24.848;2023-07-24T07:55:09;24.65;;;18.00;;
41946;SDS011;27638;42.184;24.848;2023-07-24T07:57:36;23.60;;;16.90;;
41946;SDS011;27638;42.184;24.848;2023-07-24T08:00:02;25.67;;;17.90;;
41946;SDS011;27638;42.184;24.848;2023-07-24T08:02:29;23.33;;;17.38;;
41946;SDS011;27638;42.184;24.848;2023-07-24T08:04:55;22.58;;;17.05;;
41946;SDS011;27638;42.184;24.848;2023-07-24T08:07:20;21.35;;;15.88;;
41946;SDS011;27638;42.184;24.848;2023-07-24T08:09:46;28.08;;;18.23;;
41946;SDS011;27638;42.184;24.848;2023-07-24T08:12:11;19.30;;;14.63;;
41946;SDS011;27638;42.184;24.848;2023-07-24T08:14:37;23.88;;;15.82;;
41946;SDS011;27638;42.184;24.848;2023-07-24T08:17:02;20.83;;;15.60;;
41946;SDS011;27638;42.184;24.848;2023-07-24T08:19:28;19.95;;;14.13;;
41946;SDS011;27638;42.184;24.848;2023-07-24T08:21:54;22.83;;;15.52;;
41946;SDS011;27638;42.184;24.848;2023-07-24T08:24:19;19.42;;;14.48;;
41946;SDS011;27638;42.184;24.848;2023-07-24T08:26:45;22.13;;;15.60;;
41946;SDS011;27638;42.184;24.848;2023-07-24T08:29:10;21.48;;;15.73;;
41946;SDS011;27638;42.184;24.848;2023-07-24T08:31:36;20.88;;;15.13;;
41946;SDS011;27638;42.184;24.848;2023-07-24T08:34:01;21.02;;;15.63;;
41946;SDS011;27638;42.184;24.848;2023-07-24T08:36:26;44.78;;;18.67;;
41946;SDS011;27638;42.184;24.848;2023-07-24T08:38:52;23.70;;;14.57;;
41946;SDS011;27638;42.184;24.848;2023-07-24T08:41:17;18.73;;;13.82;;
41946;SDS011;27638;42.184;24.848;2023-07-24T08:43:43;21.65;;;14.95;;
41946;SDS011;27638;42.184;24.848;2023-07-24T08:46:08;21.45;;;16.17;;
41946;SDS011;27638;42.184;24.848;2023-07-24T08:48:35;17.98;;;14.60;;
41946;SDS011;27638;42.184;24.848;2023-07-24T08:51:03;19.08;;;15.10;;
41946;SDS011;27638;42.184;24.848;2023-07-24T08:53:33;20.83;;;15.45;;
41946;SDS011;27638;42.184;24.848;2023-07-24T08:56:02;21.98;;;15.25;;
41946;SDS011;27638;42.184;24.848;2023-07-24T08:58:28;22.75;;;16.08;;
41946;SDS011;27638;42.184;24.848;2023-07-24T09:00:55;22.70;;;16.70;;
41946;SDS011;27638;42.184;24.848;2023-07-24T09:03:21;21.27;;;14.50;;
41946;SDS011;27638;42.184;24.848;2023-07-24T09:05:47;23.17;;;16.65;;
41946;SDS011;27638;42.184;24.848;2023-07-24T09:08:12;18.90;;;14.38;;
41946;SDS011;27638;42.184;24.848;2023-07-24T09:10:39;20.20;;;13.60;;
41946;SDS011;27638;42.184;24.848;2023-07-24T09:13:04;19.20;;;12.13;;
41946;SDS011;27638;42.184;24.848;2023-07-24T09:15:40;19.08;;;14.32;;
41946;SDS011;27638;42.184;24.848;2023-07-24T09:18:06;19.33;;;15.15;;
41946;SDS011;27638;42.184;24.848;2023-07-24T09:20:38;24.95;;;15.57;;
41946;SDS011;27638;42.184;24.848;2023-07-24T09:23:06;17.10;;;13.52;;
41946;SDS011;27638;42.184;24.848;2023-07-24T09:25:32;20.45;;;14.73;;
41946;SDS011;27638;42.184;24.848;2023-07-24T09:27:59;23.13;;;14.25;;
41946;SDS011;27638;42.184;24.848;2023-07-24T09:30:25;17.98;;;13.80;;
41946;SDS011;27638;42.184;24.848;2023-07-24T09:32:54;17.88;;;14.65;;
41946;SDS011;27638;42.184;24.848;2023-07-24T09:35:21;18.55;;;13.77;;
41946;SDS011;27638;42.184;24.848;2023-07-24T09:38:01;18.38;;;13.25;;
41946;SDS011;27638;42.184;24.848;2023-07-24T09:40:46;20.38;;;15.13;;
41946;SDS011;27638;42.184;24.848;2023-07-24T09:45:41;21.95;;;14.48;;
41946;SDS011;27638;42.184;24.848;2023-07-24T09:48:08;20.17;;;14.68;;
41946;SDS011;27638;42.184;24.848;2023-07-24T09:50:37;15.95;;;11.50;;
41946;SDS011;27638;42.184;24.848;2023-07-24T09:53:03;19.67;;;14.02;;
41946;SDS011;27638;42.184;24.848;2023-07-24T09:55:33;18.08;;;13.25;;
41946;SDS011;27638;42.184;24.848;2023-07-24T09:58:03;15.98;;;12.20;;
41946;SDS011;27638;42.184;24.848;2023-07-24T10:00:30;15.40;;;11.27;;
41946;SDS011;27638;42.184;24.848;2023-07-24T10:02:56;18.92;;;12.52;;
41946;SDS011;27638;42.184;24.848;2023-07-24T10:05:22;20.13;;;14.50;;
41946;SDS011;27638;42.184;24.848;2023-07-24T10:07:48;18.75;;;13.73;;
41946;SDS011;27638;42.184;24.848;2023-07-24T10:10:14;17.60;;;13.63;;
41946;SDS011;27638;42.184;24.848;2023-07-24T10:12:40;19.02;;;13.88;;
41946;SDS011;27638;42.184;24.848;2023-07-24T10:15:06;18.95;;;13.65;;
41946;SDS011;27638;42.184;24.848;2023-07-24T10:20:04;17.17;;;13.15;;
41946;SDS011;27638;42.184;24.848;2023-07-24T10:22:31;16.38;;;12.10;;
41946;SDS011;27638;42.184;24.848;2023-07-24T10:24:57;16.65;;;12.30;;
41946;SDS011;27638;42.184;24.848;2023-07-24T10:27:25;18.75;;;13.07;;
41946;SDS011;27638;42.184;24.848;2023-07-24T10:29:59;17.92;;;13.40;;
41946;SDS011;27638;42.184;24.848;2023-07-24T10:32:29;17.27;;;13.10;;
41946;SDS011;27638;42.184;24.848;2023-07-24T10:35:07;16.00;;;12.88;;
41946;SDS011;27638;42.184;24.848;2023-07-24T10:37:34;16.27;;;12.68;;
41946;SDS011;27638;42.184;24.848;2023-07-24T10:40:01;16.05;;;11.35;;
41946;SDS011;27638;42.184;24.848;2023-07-24T10:42:29;17.70;;;12.23;;
41946;SDS011;27638;42.184;24.848;2023-07-24T10:45:04;16.27;;;12.13;;
41946;SDS011;27638;42.184;24.848;2023-07-24T10:47:31;15.77;;;11.15;;
41946;SDS011;27638;42.184;24.848;2023-07-24T10:49:57;14.90;;;12.13;;
41946;SDS011;27638;42.184;24.848;2023-07-24T10:52:32;17.50;;;12.90;;
41946;SDS011;27638;42.184;24.848;2023-07-24T10:55:02;15.95;;;10.88;;
41946;SDS011;27638;42.184;24.848;2023-07-24T10:57:31;16.63;;;11.38;;
41946;SDS011;27638;42.184;24.848;2023-07-24T10:59:56;16.13;;;12.10;;
41946;SDS011;27638;42.184;24.848;2023-07-24T11:02:22;13.32;;;11.48;;
41946;SDS011;27638;42.184;24.848;2023-07-24T11:04:48;13.27;;;10.00;;
41946;SDS011;27638;42.184;24.848;2023-07-24T11:07:14;12.90;;;9.90;;
41946;SDS011;27638;42.184;24.848;2023-07-24T11:09:40;13.77;;;10.68;;
41946;SDS011;27638;42.184;24.848;2023-07-24T11:12:12;12.93;;;9.73;;
41946;SDS011;27638;42.184;24.848;2023-07-24T11:15:12;10.70;;;7.85;;
41946;SDS011;27638;42.184;24.848;2023-07-24T11:17:34;10.55;;;8.80;;
41946;SDS011;27638;42.184;24.848;2023-07-24T11:20:12;11.32;;;9.02;;
41946;SDS011;27638;42.184;24.848;2023-07-24T11:22:39;10.88;;;9.00;;
41946;SDS011;27638;42.184;24.848;2023-07-24T11:25:06;13.02;;;8.60;;
41946;SDS011;27638;42.184;24.848;2023-07-24T11:27:32;11.05;;;8.32;;
41946;SDS011;27638;42.184;24.848;2023-07-24T11:29:59;10.52;;;7.63;;
41946;SDS011;27638;42.184;24.848;2023-07-24T11:32:25;12.43;;;8.40;;
41946;SDS011;27638;42.184;24.848;2023-07-24T11:34:50;10.75;;;7.93;;
41946;SDS011;27638;42.184;24.848;2023-07-24T11:37:17;8.57;;;7.57;;
41946;SDS011;27638;42.184;24.848;2023-07-24T11:40:05;10.43;;;7.85;;
41946;SDS011;27638;42.184;24.848;2023-07-24T11:42:36;8.80;;;7.90;;
41946;SDS011;27638;42.184;24.848;2023-07-24T11:45:03;10.85;;;8.23;;
41946;SDS011;27638;42.184;24.848;2023-07-24T11:47:29;10.27;;;8.60;;
41946;SDS011;27638;42.184;24.848;2023-07-24T11:50:01;9.43;;;8.20;;
41946;SDS011;27638;42.184;24.848;2023-07-24T11:52:43;9.77;;;7.18;;
41946;SDS011;27638;42.184;24.848;2023-07-24T11:55:11;8.93;;;7.70;;
41946;SDS011;27638;42.184;24.848;2023-07-24T11:57:37;9.35;;;7.93;;
41946;SDS011;27638;42.184;24.848;2023-07-24T12:00:04;9.60;;;7.20;;
41946;SDS011;27638;42.184;24.848;2023-07-24T12:02:31;8.57;;;7.20;;
41946;SDS011;27638;42.184;24.848;2023-07-24T12:04:58;8.02;;;6.72;;
41946;SDS011;27638;42.184;24.848;2023-07-24T12:10:00;9.52;;;7.03;;
41946;SDS011;27638;42.184;24.848;2023-07-24T12:12:46;10.50;;;6.75;;
41946;SDS011;27638;42.184;24.848;2023-07-24T12:15:12;9.10;;;7.07;;
41946;SDS011;27638;42.184;24.848;2023-07-24T12:17:39;9.18;;;7.22;;
41946;SDS011;27638;42.184;24.848;2023-07-24T12:20:05;10.80;;;7.18;;
41946;SDS011;27638;42.184;24.848;2023-07-24T12:22:36;9.00;;;7.28;;
41946;SDS011;27638;42.184;24.848;2023-07-24T12:25:03;10.18;;;7.03;;
41946;SDS011;27638;42.184;24.848;2023-07-24T12:27:30;12.07;;;7.88;;
41946;SDS011;27638;42.184;24.848;2023-07-24T12:29:56;10.25;;;7.57;;
41946;SDS011;27638;42.184;24.848;2023-07-24T12:32:22;12.43;;;8.07;;
41946;SDS011;27638;42.184;24.848;2023-07-24T12:34:48;10.55;;;7.60;;
41946;SDS011;27638;42.184;24.848;2023-07-24T12:37:14;10.35;;;7.78;;
41946;SDS011;27638;42.184;24.848;2023-07-24T12:39:41;11.55;;;8.38;;
41946;SDS011;27638;42.184;24.848;2023-07-24T12:42:06;11.73;;;8.02;;
41946;SDS011;27638;42.184;24.848;2023-07-24T12:44:32;10.57;;;7.55;;
41946;SDS011;27638;42.184;24.848;2023-07-24T12:46:57;10.48;;;7.78;;
41946;SDS011;27638;42.184;24.848;2023-07-24T12:49:23;10.93;;;7.80;;
41946;SDS011;27638;42.184;24.848;2023-07-24T12:51:48;12.95;;;8.60;;
41946;SDS011;27638;42.184;24.848;2023-07-24T12:54:14;10.70;;;8.20;;
41946;SDS011;27638;42.184;24.848;2023-07-24T12:56:40;10.25;;;7.55;;
41946;SDS011;27638;42.184;24.848;2023-07-24T12:59:05;10.77;;;8.52;;
41946;SDS011;27638;42.184;24.848;2023-07-24T13:01:31;10.90;;;8.20;;
41946;SDS011;27638;42.184;24.848;2023-07-24T13:03:57;11.70;;;8.15;;
41946;SDS011;27638;42.184;24.848;2023-07-24T13:06:22;10.95;;;7.88;;
41946;SDS011;27638;42.184;24.848;2023-07-24T13:08:48;11.52;;;7.50;;
41946;SDS011;27638;42.184;24.848;2023-07-24T13:11:14;10.30;;;7.90;;
41946;SDS011;27638;42.184;24.848;2023-07-24T13:13:39;11.52;;;7.80;;
41946;SDS011;27638;42.184;24.848;2023-07-24T13:16:05;11.18;;;8.13;;
41946;SDS011;27638;42.184;24.848;2023-07-24T13:18:30;11.73;;;7.30;;
41946;SDS011;27638;42.184;24.848;2023-07-24T13:20:56;12.85;;;8.05;;
41946;SDS011;27638;42.184;24.848;2023-07-24T13:23:21;10.70;;;7.03;;
41946;SDS011;27638;42.184;24.848;2023-07-24T13:25:47;12.43;;;8.02;;
41946;SDS011;27638;42.184;24.848;2023-07-24T13:28:12;9.23;;;7.32;;
41946;SDS011;27638;42.184;24.848;2023-07-24T13:30:38;11.45;;;7.63;;
41946;SDS011;27638;42.184;24.848;2023-07-24T13:33:06;10.18;;;7.28;;
41946;SDS011;27638;42.184;24.848;2023-07-24T13:35:31;12.57;;;8.48;;
41946;SDS011;27638;42.184;24.848;2023-07-24T13:37:56;10.88;;;7.60;;
41946;SDS011;27638;42.184;24.848;2023-07-24T13:40:22;11.32;;;7.90;;
41946;SDS011;27638;42.184;24.848;2023-07-24T13:42:47;11.13;;;7.75;;
41946;SDS011;27638;42.184;24.848;2023-07-24T13:45:13;13.32;;;7.93;;
41946;SDS011;27638;42.184;24.848;2023-07-24T13:47:38;11.07;;;7.90;;
41946;SDS011;27638;42.184;24.848;2023-07-24T13:50:03;11.40;;;7.88;;
41946;SDS011;27638;42.184;24.848;2023-07-24T13:52:29;11.23;;;7.78;;
41946;SDS011;27638;42.184;24.848;2023-07-24T13:54:55;11.52;;;7.75;;
41946;SDS011;27638;42.184;24.848;2023-07-24T13:57:21;10.32;;;7.55;;
41946;SDS011;27638;42.184;24.848;2023-07-24T13:59:46;11.32;;;7.43;;
41946;SDS011;27638;42.184;24.848;2023-07-24T14:02:12;10.05;;;7.45;;
41946;SDS011;27638;42.184;24.848;2023-07-24T14:04:38;11.00;;;8.05;;
41946;SDS011;27638;42.184;24.848;2023-07-24T14:07:03;11.55;;;8.38;;
41946;SDS011;27638;42.184;24.848;2023-07-24T14:09:29;12.25;;;8.45;;
41946;SDS011;27638;42.184;24.848;2023-07-24T14:11:56;10.75;;;7.40;;
41946;SDS011;27638;42.184;24.848;2023-07-24T14:14:22;10.50;;;7.70;;
41946;SDS011;27638;42.184;24.848;2023-07-24T14:16:48;13.68;;;7.93;;
41946;SDS011;27638;42.184;24.848;2023-07-24T14:19:14;10.27;;;7.45;;
41946;SDS011;27638;42.184;24.848;2023-07-24T14:21:40;10.75;;;7.75;;